Time;durP1;ratioP1;P1;durP2;ratioP2;P2;SDS_P1;SDS_P2;PMS_P1;PMS_P2;Temp;Humidity;BMP_temperature;BMP_pressure;BME280_temperature;BME280_humidity;BME280_pressure;Samples;Min_cycle;Max_cycle;Signal;HPM_P1;HPM_P2
2023/12/26 00:01:48;;;;;;;1.00;1.00;;;13.20;57.40;12.00;96130.00;;;;4962882;28;20223;-89
2023/12/26 00:04:16;;;;;;;1.23;0.73;;;13.10;57.40;12.00;96128.00;;;;4976933;28;20667;-90
2023/12/26 00:06:44;;;;;;;0.90;0.63;;;13.10;57.30;12.00;96114.00;;;;4976701;28;20718;-89
2023/12/26 00:09:12;;;;;;;1.67;0.60;;;13.10;57.40;12.00;96132.00;;;;4976847;28;20207;-89
2023/12/26 00:11:44;;;;;;;1.60;0.70;;;13.00;57.50;11.90;96121.00;;;;4989879;28;20285;-89
2023/12/26 00:14:12;;;;;;;0.70;0.70;;;13.00;57.50;11.90;96117.00;;;;4988086;28;20195;-89
2023/12/26 00:16:43;;;;;;;0.93;0.60;;;13.00;57.70;11.90;96103.00;;;;4983662;28;20650;-90
2023/12/26 00:19:10;;;;;;;1.13;0.77;;;13.00;57.70;11.80;96102.00;;;;4977095;28;20242;-89
2023/12/26 00:21:40;;;;;;;1.33;0.60;;;12.90;57.80;11.80;96116.00;;;;4976515;28;20574;-89
2023/12/26 00:24:08;;;;;;;0.87;0.70;;;12.90;57.80;11.80;96093.00;;;;4976476;28;20214;-90
2023/12/26 00:26:38;;;;;;;0.93;0.63;;;12.90;57.90;11.70;96101.00;;;;4975818;28;20623;-89
2023/12/26 00:29:06;;;;;;;2.47;0.67;;;12.90;57.90;11.70;96115.00;;;;4984560;28;20294;-88
2023/12/26 00:31:34;;;;;;;0.67;0.60;;;12.80;58.00;11.70;96110.00;;;;4976320;28;20231;-89
2023/12/26 00:34:01;;;;;;;0.47;0.47;;;12.80;58.10;11.70;96103.00;;;;4976600;28;20730;-89
2023/12/26 00:36:28;;;;;;;0.50;0.50;;;12.80;58.10;11.60;96106.00;;;;4978981;28;20257;-88
2023/12/26 00:38:57;;;;;;;3.13;1.17;;;12.80;58.20;11.70;96105.00;;;;4988653;28;20202;-89
2023/12/26 00:41:25;;;;;;;0.90;0.73;;;12.80;58.20;11.60;96104.00;;;;4973815;28;20207;-89
2023/12/26 00:43:54;;;;;;;1.67;0.70;;;12.70;58.30;11.60;96096.00;;;;4988747;28;20202;-89
2023/12/26 00:46:21;;;;;;;0.70;0.40;;;12.70;58.40;11.50;96104.00;;;;4975440;28;20219;-90
2023/12/26 00:48:49;;;;;;;0.97;0.90;;;12.60;58.40;11.50;96095.00;;;;4974371;28;20206;-90
2023/12/26 00:51:16;;;;;;;1.00;0.87;;;12.60;58.40;11.50;96107.00;;;;4974210;28;20200;-89
2023/12/26 00:53:44;;;;;;;0.70;0.70;;;12.60;58.50;11.40;96107.00;;;;4979445;28;20265;-91
2023/12/26 00:56:14;;;;;;;1.33;0.67;;;12.60;58.60;11.40;96102.00;;;;4977947;28;20215;-89
2023/12/26 00:58:42;;;;;;;2.33;0.90;;;12.50;58.50;11.40;96094.00;;;;4981672;28;20206;-90
2023/12/26 01:01:09;;;;;;;0.70;0.70;;;12.50;58.70;11.30;96096.00;;;;4978884;28;20275;-89
2023/12/26 01:03:37;;;;;;;1.50;0.93;;;12.50;58.80;11.30;96098.00;;;;4995639;28;20225;-89
2023/12/26 01:06:04;;;;;;;1.53;0.90;;;12.40;58.70;11.30;96093.00;;;;4994703;28;20230;-90
2023/12/26 01:08:32;;;;;;;1.83;1.10;;;12.40;58.80;11.30;96096.00;;;;4986635;28;20298;-90
2023/12/26 01:10:59;;;;;;;1.23;1.00;;;12.40;59.40;11.20;96092.00;;;;4987064;28;20195;-89
2023/12/26 01:13:34;;;;;;;1.83;1.10;;;12.30;58.90;11.20;96099.00;;;;4975662;28;20572;-90
2023/12/26 01:16:02;;;;;;;1.23;1.10;;;12.30;59.00;11.10;96090.00;;;;4975505;28;20249;-89
2023/12/26 01:18:32;;;;;;;1.27;0.87;;;12.30;59.10;11.10;96097.00;;;;4983734;28;20215;-89
2023/12/26 01:20:59;;;;;;;0.70;0.70;;;12.30;59.10;11.10;96094.00;;;;4975239;28;20210;-89
2023/12/26 01:23:28;;;;;;;1.20;0.70;;;12.20;59.10;11.10;96096.00;;;;4975580;28;20633;-89
2023/12/26 01:25:55;;;;;;;0.80;0.80;;;12.20;59.10;11.00;96074.00;;;;4975638;28;20227;-89
2023/12/26 01:28:22;;;;;;;1.40;0.63;;;12.20;59.20;11.00;96091.00;;;;4975474;28;20282;-89
2023/12/26 01:30:53;;;;;;;1.10;0.70;;;12.10;59.20;11.00;96096.00;;;;4975605;28;20246;-89
2023/12/26 01:33:21;;;;;;;1.50;0.90;;;12.10;59.20;10.90;96092.00;;;;4974470;28;20266;-89
2023/12/26 01:35:48;;;;;;;0.77;0.70;;;12.10;59.30;10.90;96095.00;;;;4974550;28;20219;-90
2023/12/26 01:38:15;;;;;;;1.80;1.10;;;12.00;59.40;10.90;96096.00;;;;4975027;28;20206;-90
2023/12/26 01:40:45;;;;;;;0.97;0.90;;;12.00;59.40;10.80;96094.00;;;;4980225;28;20258;-90
2023/12/26 01:43:12;;;;;;;1.23;0.80;;;12.00;59.40;10.80;96092.00;;;;4972895;28;20694;-89
2023/12/26 01:45:40;;;;;;;0.90;0.90;;;11.90;59.50;10.80;96085.00;;;;4980684;28;20219;-89
2023/12/26 01:48:11;;;;;;;0.50;0.50;;;11.90;59.50;10.70;96089.00;;;;4972943;28;20262;-90
2023/12/26 01:50:39;;;;;;;1.50;0.80;;;11.90;59.50;10.70;96089.00;;;;4973275;28;20594;-89
2023/12/26 01:53:07;;;;;;;0.70;0.70;;;11.90;59.60;10.70;96086.00;;;;4974650;28;20196;-89
2023/12/26 01:55:36;;;;;;;0.70;0.70;;;11.80;59.60;10.70;96082.00;;;;4974847;28;20716;-90
2023/12/26 01:58:04;;;;;;;0.63;0.63;;;11.80;59.60;10.70;96089.00;;;;4975186;28;20659;-89
2023/12/26 02:00:31;;;;;;;1.60;0.70;;;11.80;59.70;10.70;96095.00;;;;4962358;28;20203;-89
2023/12/26 02:02:59;;;;;;;1.33;0.60;;;11.80;59.70;10.60;96090.00;;;;4981445;28;20227;-89
2023/12/26 02:05:29;;;;;;;0.60;0.60;;;11.70;59.70;10.60;96081.00;;;;4969538;28;20235;-89
2023/12/26 02:07:56;;;;;;;0.93;0.60;;;11.70;59.70;10.60;96083.00;;;;4974637;28;20206;-89
2023/12/26 02:10:24;;;;;;;1.17;0.70;;;11.70;59.80;10.60;96070.00;;;;4974723;28;20298;-90
2023/12/26 02:12:52;;;;;;;2.90;0.70;;;11.70;59.90;10.60;96075.00;;;;4967597;28;20264;-89
2023/12/26 02:15:19;;;;;;;0.90;0.70;;;11.70;59.90;10.50;96076.00;;;;4980562;28;20312;-90
2023/12/26 02:17:48;;;;;;;3.30;0.57;;;11.70;59.90;10.50;96073.00;;;;4974082;28;20202;-89
2023/12/26 02:20:16;;;;;;;1.37;0.60;;;11.60;59.80;10.50;96072.00;;;;4974457;28;20230;-89
2023/12/26 02:22:46;;;;;;;0.77;0.47;;;11.60;60.00;10.50;96060.00;;;;4974575;28;20285;-89
2023/12/26 02:25:15;;;;;;;1.20;0.60;;;11.60;60.00;10.40;96058.00;;;;4974058;28;20306;-89
2023/12/26 02:27:44;;;;;;;0.50;0.50;;;11.50;60.00;10.40;96068.00;;;;4973850;28;20625;-89
2023/12/26 02:30:13;;;;;;;1.00;0.70;;;11.50;60.10;10.40;96066.00;;;;4973836;28;20337;-90
2023/12/26 02:32:45;;;;;;;0.50;0.50;;;11.60;60.20;10.30;96057.00;;;;4973132;28;20249;-89
2023/12/26 02:35:13;;;;;;;0.57;0.50;;;11.50;60.20;10.30;96051.00;;;;4973105;28;20758;-89
2023/12/26 02:37:40;;;;;;;1.33;0.60;;;11.50;60.40;10.30;96052.00;;;;4972807;28;20203;-89
2023/12/26 02:40:09;;;;;;;0.70;0.70;;;11.50;60.50;10.30;96059.00;;;;4972482;28;20554;-89
2023/12/26 02:42:38;;;;;;;1.07;0.60;;;11.40;60.70;10.20;96058.00;;;;4972325;28;20426;-89
2023/12/26 02:45:07;;;;;;;0.57;0.50;;;11.40;60.60;10.20;96055.00;;;;4980490;28;20223;-89
2023/12/26 02:47:35;;;;;;;0.60;0.60;;;11.40;60.80;10.20;96051.00;;;;4980608;28;20674;-89
2023/12/26 02:50:02;;;;;;;1.43;1.13;;;11.40;60.90;10.10;96057.00;;;;4974321;28;20203;-89
2023/12/26 02:52:29;;;;;;;0.87;0.70;;;11.30;60.80;10.10;96059.00;;;;4973665;28;20195;-89
2023/12/26 02:54:57;;;;;;;1.00;0.70;;;11.30;61.00;10.10;96056.00;;;;4989074;28;20218;-89
2023/12/26 02:57:24;;;;;;;0.93;0.70;;;11.30;61.10;10.10;96064.00;;;;4985339;28;20210;-89
2023/12/26 02:59:53;;;;;;;1.27;0.77;;;11.30;61.10;10.10;96063.00;;;;4978800;28;20203;-90
2023/12/26 03:02:20;;;;;;;0.57;0.50;;;11.30;61.10;10.10;96064.00;;;;4973775;28;20285;-89
2023/12/26 03:04:48;;;;;;;1.80;0.77;;;11.20;61.20;10.00;96066.00;;;;4973507;28;20258;-89
2023/12/26 03:07:15;;;;;;;1.50;0.67;;;11.20;61.30;10.00;96062.00;;;;4973916;28;20204;-89
2023/12/26 03:09:42;;;;;;;1.47;1.20;;;11.20;61.40;10.00;96058.00;;;;4981397;28;20234;-89
2023/12/26 03:12:09;;;;;;;0.93;0.70;;;11.20;61.40;10.00;96038.00;;;;4981589;28;20207;-90
2023/12/26 03:14:37;;;;;;;1.83;0.77;;;11.20;61.40;10.00;96044.00;;;;4985214;28;20207;-89
2023/12/26 03:17:07;;;;;;;1.30;1.20;;;11.20;61.40;9.90;96063.00;;;;4982610;28;20223;-89
2023/12/26 03:19:35;;;;;;;1.53;0.80;;;11.20;61.50;9.90;96059.00;;;;4981537;28;20302;-89
2023/12/26 03:22:03;;;;;;;0.70;0.70;;;11.20;61.50;9.90;96057.00;;;;4981428;28;20233;-89
2023/12/26 03:24:30;;;;;;;0.70;0.70;;;11.10;61.40;9.90;96053.00;;;;4960723;28;20215;-89
2023/12/26 03:26:57;;;;;;;0.73;0.70;;;11.10;61.50;9.90;96054.00;;;;4976234;28;20219;-89
2023/12/26 03:29:28;;;;;;;0.80;0.80;;;11.10;61.50;9.90;96056.00;;;;4983096;28;20298;-89
2023/12/26 03:31:55;;;;;;;0.93;0.70;;;11.10;61.50;9.90;96057.00;;;;4976042;28;20310;-90
2023/12/26 03:34:24;;;;;;;1.80;0.70;;;11.10;61.60;9.90;96064.00;;;;4975662;28;20266;-90
2023/12/26 03:36:51;;;;;;;0.90;0.73;;;11.10;61.60;9.90;96066.00;;;;4976001;28;20359;-89
2023/12/26 03:39:19;;;;;;;0.77;0.70;;;11.10;61.60;9.90;96060.00;;;;4975907;28;20215;-89
2023/12/26 03:41:48;;;;;;;0.73;0.73;;;11.10;61.70;9.90;96069.00;;;;4975759;28;20551;-90
2023/12/26 03:44:16;;;;;;;0.73;0.73;;;11.10;61.70;9.90;96065.00;;;;4977339;28;20227;-89
2023/12/26 03:46:43;;;;;;;0.70;0.67;;;11.10;61.70;9.90;96059.00;;;;4977565;28;20224;-89
2023/12/26 03:49:11;;;;;;;0.93;0.73;;;11.10;61.70;9.80;96064.00;;;;4978022;28;20211;-89
2023/12/26 03:51:40;;;;;;;0.70;0.70;;;11.00;61.70;9.80;96066.00;;;;4982536;28;20212;-89
2023/12/26 03:54:07;;;;;;;1.37;0.77;;;11.00;61.60;9.80;96078.00;;;;4976927;28;20286;-89
2023/12/26 03:56:38;;;;;;;0.70;0.70;;;11.00;61.60;9.80;96071.00;;;;4977147;28;20301;-89
2023/12/26 03:59:06;;;;;;;1.17;0.90;;;11.00;61.60;9.80;96071.00;;;;4976645;28;20552;-89
2023/12/26 04:01:35;;;;;;;0.93;0.60;;;11.00;61.60;9.80;96069.00;;;;4976494;28;20199;-89
2023/12/26 04:04:02;;;;;;;1.27;0.60;;;11.00;61.60;9.70;96069.00;;;;4984115;28;20231;-89
2023/12/26 04:06:29;;;;;;;1.17;0.60;;;10.90;61.50;9.70;96062.00;;;;4981462;28;20227;-89
2023/12/26 04:08:58;;;;;;;1.43;0.80;;;10.90;61.50;9.70;96056.00;;;;4974701;28;20350;-89
2023/12/26 04:11:25;;;;;;;1.23;0.70;;;10.90;61.40;9.70;96061.00;;;;4975260;28;20613;-89
2023/12/26 04:13:53;;;;;;;1.73;0.70;;;10.90;61.40;9.70;96045.00;;;;4990137;28;20203;-89
2023/12/26 04:16:20;;;;;;;1.00;0.80;;;10.90;61.40;9.70;96063.00;;;;4983721;28;20859;-88
2023/12/26 04:18:47;;;;;;;2.23;0.90;;;10.90;61.40;9.70;96062.00;;;;4968606;28;20261;-89
2023/12/26 04:21:14;;;;;;;1.60;0.77;;;10.90;61.30;9.80;96063.00;;;;4986617;28;20563;-89
2023/12/26 04:23:42;;;;;;;1.47;0.60;;;10.90;61.30;9.80;96070.00;;;;4976186;28;20223;-89
2023/12/26 04:26:10;;;;;;;1.50;0.80;;;10.90;61.30;9.80;96078.00;;;;4983751;28;20220;-89
2023/12/26 04:28:38;;;;;;;0.90;0.60;;;10.90;61.20;9.80;96064.00;;;;4983946;28;20204;-89
2023/12/26 04:31:05;;;;;;;2.00;0.70;;;11.00;61.30;9.80;96066.00;;;;4975805;28;20687;-89
2023/12/26 04:33:32;;;;;;;1.20;0.63;;;11.00;61.20;9.80;96047.00;;;;4975234;28;20707;-89
2023/12/26 04:36:00;;;;;;;0.70;0.70;;;11.00;61.20;9.80;96078.00;;;;4982717;28;20599;-88
2023/12/26 04:38:27;;;;;;;0.90;0.60;;;11.00;61.10;9.90;96082.00;;;;4976142;28;20195;-89
2023/12/26 04:40:54;;;;;;;0.60;0.60;;;11.00;61.10;9.90;96081.00;;;;4975749;28;20211;-89
2023/12/26 04:43:23;;;;;;;1.33;0.80;;;11.00;61.10;9.90;96082.00;;;;4978310;28;20223;-89
2023/12/26 04:45:50;;;;;;;1.77;0.60;;;11.00;61.00;9.90;96075.00;;;;4981130;28;20215;-89
2023/12/26 04:48:18;;;;;;;1.00;0.60;;;11.10;61.10;10.00;96085.00;;;;4975976;28;20215;-89
2023/12/26 04:50:45;;;;;;;0.87;0.63;;;11.10;61.20;10.00;96092.00;;;;4976478;28;20212;-90
2023/12/26 04:53:12;;;;;;;0.77;0.77;;;11.20;61.10;10.00;96087.00;;;;4983138;28;20206;-90
2023/12/26 04:55:39;;;;;;;0.80;0.80;;;11.20;61.30;10.10;96098.00;;;;4982273;28;20227;-89
2023/12/26 04:58:07;;;;;;;0.73;0.60;;;11.20;61.20;10.10;96098.00;;;;4976167;28;20227;-90
2023/12/26 05:00:37;;;;;;;1.43;0.70;;;11.20;61.00;10.10;96104.00;;;;4975790;28;20210;-88
2023/12/26 05:03:05;;;;;;;1.03;0.70;;;11.30;60.90;10.10;96112.00;;;;4975819;28;20200;-89
2023/12/26 05:05:32;;;;;;;0.60;0.60;;;11.30;61.00;10.10;96113.00;;;;4975226;28;20231;-90
2023/12/26 05:08:01;;;;;;;0.80;0.70;;;11.30;61.20;10.20;96118.00;;;;4975983;28;20255;-89
2023/12/26 05:10:28;;;;;;;1.60;0.77;;;11.30;61.10;10.20;96128.00;;;;4976194;28;20209;-89
2023/12/26 05:12:56;;;;;;;0.80;0.80;;;11.30;61.00;10.20;96126.00;;;;4975454;28;20203;-90
2023/12/26 05:15:23;;;;;;;1.70;0.70;;;11.40;61.00;10.20;96126.00;;;;4974563;28;20219;-90
2023/12/26 05:17:52;;;;;;;0.50;0.50;;;11.40;61.10;10.20;96142.00;;;;4973969;28;20242;-89
2023/12/26 05:20:19;;;;;;;0.57;0.57;;;11.40;61.10;10.20;96146.00;;;;4972725;28;20230;-88
2023/12/26 05:22:47;;;;;;;0.63;0.63;;;11.40;61.10;10.20;96156.00;;;;4972667;28;20208;-90
2023/12/26 05:25:14;;;;;;;0.47;0.47;;;11.40;61.10;10.20;96158.00;;;;4982317;28;20611;-89
2023/12/26 05:27:41;;;;;;;2.03;0.70;;;11.40;61.10;10.20;96159.00;;;;4987726;28;20200;-89
2023/12/26 05:30:10;;;;;;;2.87;0.80;;;11.40;61.30;10.20;96173.00;;;;4973183;28;20202;-89
2023/12/26 05:32:37;;;;;;;0.73;0.60;;;11.40;61.30;10.20;96177.00;;;;4973234;28;20200;-91
2023/12/26 05:35:07;;;;;;;0.63;0.63;;;11.40;61.30;10.20;96186.00;;;;4974336;28;20278;-89
2023/12/26 05:37:35;;;;;;;2.83;0.60;;;11.40;61.30;10.20;96185.00;;;;4974728;28;20214;-89
2023/12/26 05:40:03;;;;;;;1.37;0.70;;;11.40;61.30;10.20;96188.00;;;;4974864;28;20195;-90
2023/12/26 05:42:30;;;;;;;1.17;0.80;;;11.40;61.30;10.20;96194.00;;;;4973975;28;20206;-89
2023/12/26 05:44:57;;;;;;;0.60;0.60;;;11.40;61.40;10.20;96197.00;;;;4974019;28;20613;-90
2023/12/26 05:47:24;;;;;;;0.60;0.60;;;11.40;61.40;10.20;96200.00;;;;4974820;28;20200;-89
2023/12/26 05:49:57;;;;;;;0.73;0.50;;;11.40;61.50;10.20;96198.00;;;;4974707;28;20196;-91
2023/12/26 05:52:26;;;;;;;0.97;0.43;;;11.40;61.50;10.20;96201.00;;;;4974930;28;20192;-89
2023/12/26 05:54:56;;;;;;;1.13;0.50;;;11.40;61.50;10.10;96208.00;;;;4974265;28;20210;-89
2023/12/26 05:57:24;;;;;;;1.20;0.77;;;11.40;61.70;10.20;96207.00;;;;4974458;28;20234;-90
2023/12/26 05:59:52;;;;;;;0.77;0.70;;;11.40;61.70;10.10;96219.00;;;;4974657;28;20199;-89
2023/12/26 06:02:20;;;;;;;1.53;0.60;;;11.30;61.60;10.10;96220.00;;;;4974465;28;20584;-90
2023/12/26 06:04:47;;;;;;;0.70;0.70;;;11.30;61.70;10.10;96219.00;;;;4974321;28;20223;-89
2023/12/26 06:07:15;;;;;;;0.90;0.70;;;11.30;61.90;10.10;96212.00;;;;4974682;28;20206;-89
2023/12/26 06:09:43;;;;;;;1.13;0.70;;;11.30;62.10;10.10;96222.00;;;;4974094;28;20196;-90
2023/12/26 06:12:10;;;;;;;0.50;0.50;;;11.30;62.20;10.10;96219.00;;;;4972880;28;20218;-89
2023/12/26 06:14:39;;;;;;;1.17;1.07;;;11.30;62.30;10.10;96222.00;;;;4973721;28;20553;-89
2023/12/26 06:17:06;;;;;;;0.87;0.60;;;11.30;62.30;10.10;96228.00;;;;4972661;28;20349;-89
2023/12/26 06:19:33;;;;;;;4.10;1.10;;;11.30;62.30;10.10;96215.00;;;;4972254;28;20230;-90
2023/12/26 06:22:00;;;;;;;0.87;0.60;;;11.30;62.30;10.00;96222.00;;;;4972444;28;20203;-89
2023/12/26 06:24:28;;;;;;;0.93;0.60;;;11.30;62.50;10.10;96212.00;;;;4972133;28;20216;-89
2023/12/26 06:26:56;;;;;;;1.03;0.57;;;11.20;62.40;10.00;96227.00;;;;4972047;28;20252;-90
2023/12/26 06:29:24;;;;;;;1.60;0.77;;;11.30;62.60;10.10;96238.00;;;;4972656;28;20263;-89
2023/12/26 06:31:51;;;;;;;0.67;0.60;;;11.30;62.70;10.00;96221.00;;;;4973874;28;20235;-89
2023/12/26 06:34:19;;;;;;;1.73;1.33;;;11.20;62.60;10.10;96242.00;;;;4974383;28;20214;-89
2023/12/26 06:36:46;;;;;;;0.60;0.60;;;11.30;62.80;10.00;96251.00;;;;4974190;28;20234;-89
2023/12/26 06:39:13;;;;;;;1.10;1.00;;;11.30;62.80;10.00;96255.00;;;;4973655;28;20218;-89
2023/12/26 06:41:43;;;;;;;1.23;0.60;;;11.30;62.80;10.00;96265.00;;;;4973541;28;20211;-89
2023/12/26 06:44:12;;;;;;;1.03;0.60;;;11.20;62.80;10.00;96260.00;;;;4974638;28;20230;-90
2023/12/26 06:46:41;;;;;;;2.13;0.60;;;11.20;62.90;10.00;96268.00;;;;4974636;28;20298;-90
2023/12/26 06:49:09;;;;;;;0.50;0.40;;;11.20;63.00;10.00;96271.00;;;;4974725;28;20258;-91
2023/12/26 06:51:40;;;;;;;1.60;0.80;;;11.20;63.10;9.90;96269.00;;;;4974778;28;20254;-89
2023/12/26 06:54:07;;;;;;;1.27;0.80;;;11.20;63.20;10.00;96273.00;;;;4974817;28;20214;-89
2023/12/26 06:56:34;;;;;;;2.67;0.60;;;11.20;63.40;9.90;96278.00;;;;4974744;28;20219;-89
2023/12/26 06:59:01;;;;;;;1.13;0.63;;;11.10;63.40;9.90;96281.00;;;;4978222;28;20814;-89
2023/12/26 07:01:30;;;;;;;1.63;0.70;;;11.10;63.60;9.90;96282.00;;;;4978198;28;20209;-91
2023/12/26 07:03:58;;;;;;;1.93;0.90;;;11.10;63.70;10.00;96290.00;;;;4977481;28;20231;-90
2023/12/26 07:06:25;;;;;;;1.37;0.77;;;11.10;63.80;9.90;96297.00;;;;4977276;28;20791;-89
2023/12/26 07:08:52;;;;;;;1.00;0.87;;;11.10;64.00;10.00;96290.00;;;;4976529;28;20231;-89
2023/12/26 07:11:19;;;;;;;0.97;0.67;;;11.10;64.10;10.00;96301.00;;;;4976428;28;20207;-89
2023/12/26 07:13:47;;;;;;;1.53;0.70;;;11.10;64.20;10.00;96304.00;;;;4975991;28;20203;-89
2023/12/26 07:16:14;;;;;;;6.70;3.40;;;11.20;64.40;10.10;96303.00;;;;4975577;28;20267;-90
2023/12/26 07:18:43;;;;;;;2.50;1.13;;;11.20;64.40;10.10;96308.00;;;;4975983;28;20196;-89
2023/12/26 07:21:10;;;;;;;2.23;1.40;;;11.20;64.40;10.10;96317.00;;;;4975846;28;20207;-89
2023/12/26 07:23:38;;;;;;;0.60;0.60;;;11.30;64.60;10.20;96321.00;;;;4975460;28;20203;-90
2023/12/26 07:26:06;;;;;;;1.40;0.70;;;11.30;64.60;10.20;96321.00;;;;4976141;28;20424;-89
2023/12/26 07:28:33;;;;;;;1.73;0.60;;;11.40;64.60;10.30;96319.00;;;;4961517;28;20280;-88
2023/12/26 07:31:00;;;;;;;1.53;0.70;;;11.40;64.50;10.30;96326.00;;;;4976783;28;20648;-89
2023/12/26 07:33:28;;;;;;;1.10;0.70;;;11.40;64.50;10.30;96326.00;;;;4976718;28;20258;-89
2023/12/26 07:36:00;;;;;;;2.77;0.90;;;11.50;64.50;10.40;96344.00;;;;4985205;28;20675;-88
2023/12/26 07:38:27;;;;;;;1.17;0.70;;;11.50;64.30;10.40;96348.00;;;;4977374;28;20191;-88
2023/12/26 07:40:54;;;;;;;0.80;0.67;;;11.50;64.30;10.40;96343.00;;;;4977350;28;20254;-88
2023/12/26 07:43:22;;;;;;;0.93;0.60;;;11.60;64.30;10.40;96342.00;;;;4977282;28;20203;-90
2023/12/26 07:45:49;;;;;;;1.37;0.70;;;12.20;64.70;10.50;96364.00;;;;4982255;28;20233;-89
2023/12/26 07:48:16;;;;;;;1.53;0.60;;;11.60;64.30;10.50;96362.00;;;;4978292;28;20222;-88
2023/12/26 07:50:43;;;;;;;5.63;1.17;;;11.70;64.20;10.50;96365.00;;;;4996466;28;20202;-88
2023/12/26 07:53:12;;;;;;;0.90;0.67;;;11.70;64.20;10.60;96369.00;;;;4986401;28;20574;-89
2023/12/26 07:55:39;;;;;;;1.97;0.80;;;11.70;64.10;10.60;96366.00;;;;4995815;28;20218;-89
2023/12/26 07:58:07;;;;;;;1.67;0.80;;;11.70;64.10;10.60;96350.00;;;;4987331;28;20218;-89
2023/12/26 08:00:35;;;;;;;1.03;0.70;;;11.80;64.10;10.70;96378.00;;;;4976676;28;20274;-89
2023/12/26 08:03:02;;;;;;;0.90;0.60;;;11.80;64.10;10.70;96370.00;;;;4983117;28;20737;-89
2023/12/26 08:05:29;;;;;;;3.70;0.70;;;11.80;64.10;10.80;96374.00;;;;4976393;28;20220;-88
2023/12/26 08:07:56;;;;;;;1.30;0.70;;;11.90;64.20;10.80;96378.00;;;;4978246;28;20657;-85
2023/12/26 08:10:25;;;;;;;0.60;0.60;;;12.00;64.30;10.90;96383.00;;;;4990487;28;20206;-87
2023/12/26 08:12:55;;;;;;;0.97;0.67;;;12.00;64.00;11.00;96387.00;;;;4980525;28;20255;-85
2023/12/26 08:15:22;;;;;;;0.80;0.70;;;12.00;63.90;11.00;96392.00;;;;4983210;28;20219;-85
2023/12/26 08:17:51;;;;;;;0.77;0.77;;;12.10;63.80;11.10;96384.00;;;;4980590;28;20199;-85
2023/12/26 08:20:18;;;;;;;1.73;0.90;;;12.20;63.80;11.10;96395.00;;;;4990415;28;20199;-85
2023/12/26 08:22:45;;;;;;;0.80;0.80;;;12.20;63.70;11.20;96392.00;;;;4974755;28;20645;-85
2023/12/26 08:25:12;;;;;;;0.83;0.73;;;12.30;63.60;11.20;96389.00;;;;4985800;28;20231;-86
2023/12/26 08:27:41;;;;;;;0.80;0.80;;;12.30;63.50;11.20;96407.00;;;;4990990;28;20281;-85
2023/12/26 08:30:10;;;;;;;1.23;1.13;;;12.40;63.40;11.30;96405.00;;;;4976470;28;20207;-85
2023/12/26 08:32:37;;;;;;;1.50;0.83;;;12.40;63.30;11.30;96415.00;;;;4995356;28;20195;-84
2023/12/26 08:35:05;;;;;;;1.63;0.90;;;12.50;63.30;11.30;96414.00;;;;4979688;28;20262;-85
2023/12/26 08:37:32;;;;;;;1.87;0.80;;;12.50;63.20;11.40;96410.00;;;;4968003;28;20258;-85
2023/12/26 08:40:00;;;;;;;1.77;0.90;;;12.50;63.10;11.40;96421.00;;;;4975827;28;20664;-86
2023/12/26 08:42:27;;;;;;;1.37;0.83;;;12.60;63.20;11.40;96413.00;;;;4981385;28;20203;-86
2023/12/26 08:44:56;;;;;;;1.40;0.80;;;12.60;63.10;11.50;96412.00;;;;4976196;28;20238;-86
2023/12/26 08:47:26;;;;;;;1.20;0.70;;;12.60;63.10;11.50;96409.00;;;;4986641;28;20258;-87
2023/12/26 08:49:53;;;;;;;1.53;1.00;;;12.70;63.10;11.50;96412.00;;;;4984654;28;20200;-88
2023/12/26 08:52:21;;;;;;;2.47;1.10;;;12.70;63.20;11.50;96409.00;;;;4980115;28;20203;-87
2023/12/26 08:54:49;;;;;;;1.90;0.90;;;12.70;63.10;11.60;96414.00;;;;4988915;28;20865;-88
2023/12/26 08:57:16;;;;;;;1.30;0.80;;;12.70;63.10;11.60;96407.00;;;;4983828;28;20215;-88
2023/12/26 08:59:43;;;;;;;1.37;0.80;;;12.80;63.10;11.60;96411.00;;;;4980944;28;20258;-88
2023/12/26 09:02:12;;;;;;;1.63;0.80;;;12.80;63.00;11.60;96411.00;;;;4982422;28;20195;-89
2023/12/26 09:04:39;;;;;;;1.50;0.87;;;12.80;62.90;11.70;96417.00;;;;4978343;28;20261;-87
2023/12/26 09:07:06;;;;;;;1.50;0.90;;;12.80;63.10;11.70;96424.00;;;;4978898;28;20246;-87
2023/12/26 09:09:34;;;;;;;1.43;0.97;;;12.80;63.20;11.70;96423.00;;;;4988165;28;20613;-87
2023/12/26 09:12:01;;;;;;;1.83;0.97;;;12.90;63.20;11.80;96433.00;;;;4973494;28;20230;-87
2023/12/26 09:14:37;;;;;;;1.03;0.80;;;12.90;63.30;11.80;96444.00;;;;4992413;28;20724;-87
2023/12/26 09:17:09;;;;;;;1.90;0.70;;;13.00;63.30;11.90;96430.00;;;;4976433;28;20289;-88
2023/12/26 09:19:38;;;;;;;2.10;0.90;;;13.10;63.30;12.00;96451.00;;;;4971232;28;20195;-88
2023/12/26 09:22:22;;;;;;;1.00;0.63;;;13.00;63.30;12.00;96448.00;;;;4976617;28;20253;-87
2023/12/26 09:24:49;;;;;;;0.93;0.80;;;13.10;63.30;12.10;96462.00;;;;4967088;28;20262;-85
2023/12/26 09:27:16;;;;;;;1.00;0.70;;;13.20;63.10;12.10;96467.00;;;;4977131;28;20209;-89
2023/12/26 09:29:54;;;;;;;2.27;0.97;;;13.20;63.10;12.10;96471.00;;;;4980541;28;20207;-87
2023/12/26 09:32:21;;;;;;;1.20;0.70;;;13.30;63.00;12.20;96452.00;;;;4974855;28;20262;-88
2023/12/26 09:34:50;;;;;;;1.97;0.90;;;13.30;62.80;12.20;96476.00;;;;4974498;28;20243;-87
2023/12/26 09:37:18;;;;;;;1.17;1.03;;;13.30;62.70;12.20;96466.00;;;;4990470;28;20285;-87
2023/12/26 09:39:45;;;;;;;1.20;0.90;;;13.30;62.80;12.30;96468.00;;;;4974339;28;20722;-88
2023/12/26 09:42:14;;;;;;;1.33;0.93;;;13.40;62.90;12.30;96472.00;;;;4974013;28;20273;-87
2023/12/26 09:44:43;;;;;;;1.97;0.83;;;13.40;62.80;12.40;96478.00;;;;4973717;28;20273;-87
2023/12/26 09:47:12;;;;;;;1.57;0.67;;;13.40;62.80;12.40;96472.00;;;;4973898;28;20261;-89
2023/12/26 09:49:42;;;;;;;1.57;1.07;;;13.50;62.90;12.40;96472.00;;;;4978497;28;20258;-88
2023/12/26 09:52:13;;;;;;;0.80;0.50;;;13.50;62.90;12.50;96474.00;;;;4974181;28;20587;-86
2023/12/26 09:54:44;;;;;;;1.50;0.83;;;13.60;62.80;12.60;96475.00;;;;4973550;28;20202;-88
2023/12/26 09:57:12;;;;;;;1.83;0.70;;;13.60;62.70;12.60;96487.00;;;;4981397;28;20264;-87
2023/12/26 09:59:40;;;;;;;0.63;0.63;;;13.70;62.80;12.70;96479.00;;;;4979189;28;20199;-85
2023/12/26 10:02:12;;;;;;;0.93;0.70;;;13.70;62.60;12.70;96475.00;;;;4971625;28;20192;-85
2023/12/26 10:04:40;;;;;;;1.03;0.70;;;13.80;62.30;12.80;96484.00;;;;4971558;28;20207;-85
2023/12/26 10:07:09;;;;;;;0.90;0.70;;;13.80;62.40;12.80;96488.00;;;;4972372;28;20207;-85
2023/12/26 10:09:37;;;;;;;1.40;1.10;;;13.90;62.40;12.90;96486.00;;;;4971999;28;20205;-86
2023/12/26 10:12:06;;;;;;;1.67;0.90;;;13.90;62.30;13.00;96475.00;;;;4972808;28;20281;-83
2023/12/26 10:14:33;;;;;;;0.80;0.70;;;14.00;62.30;13.00;96478.00;;;;4973005;28;20226;-84
2023/12/26 10:17:01;;;;;;;2.67;0.70;;;14.10;62.10;13.00;96462.00;;;;4973642;28;20215;-85
2023/12/26 10:19:28;;;;;;;1.20;0.80;;;14.10;61.90;13.10;96465.00;;;;4973828;28;20211;-87
2023/12/26 10:21:55;;;;;;;1.90;0.80;;;14.10;61.80;13.10;96465.00;;;;4973250;28;20207;-85
2023/12/26 10:24:23;;;;;;;1.40;0.83;;;14.20;61.50;13.10;96477.00;;;;4972545;28;20269;-84
2023/12/26 10:26:52;;;;;;;2.73;1.00;;;14.20;61.30;13.10;96479.00;;;;4969182;28;20227;-84
2023/12/26 10:29:19;;;;;;;1.00;0.80;;;14.20;61.10;13.10;96494.00;;;;4971456;28;20262;-84
2023/12/26 10:32:02;;;;;;;1.63;0.70;;;14.20;61.20;13.10;96486.00;;;;4977218;28;20209;-85
2023/12/26 10:34:31;;;;;;;1.27;0.60;;;14.20;60.40;13.10;96488.00;;;;4978450;28;20287;-84
2023/12/26 10:36:59;;;;;;;1.13;0.80;;;14.20;61.00;13.10;96488.00;;;;4972164;28;20592;-84
2023/12/26 10:39:28;;;;;;;1.00;0.97;;;14.20;61.10;13.10;96489.00;;;;4972196;28;20203;-84
2023/12/26 10:41:59;;;;;;;1.27;1.00;;;14.30;61.10;13.10;96485.00;;;;4973271;28;20270;-84
2023/12/26 10:44:58;;;;;;;1.83;1.17;;;14.30;61.00;13.20;96499.00;;;;4973090;28;20188;-84
2023/12/26 10:47:28;;;;;;;2.07;0.87;;;14.30;61.00;13.20;96493.00;;;;4969810;28;20203;-85
2023/12/26 10:49:59;;;;;;;1.47;0.90;;;14.30;61.30;13.20;96495.00;;;;4992566;28;20253;-84
2023/12/26 10:52:32;;;;;;;1.60;0.93;;;14.30;61.20;13.30;96497.00;;;;4982140;28;20208;-85
2023/12/26 10:55:05;;;;;;;0.93;0.80;;;14.40;61.10;13.30;96498.00;;;;4976288;28;20302;-85
2023/12/26 10:57:35;;;;;;;1.10;0.80;;;14.40;61.10;13.30;96501.00;;;;4964129;28;20282;-84
2023/12/26 13:54:11;;;;;;;1.23;0.80;;;15.00;62.00;13.90;96523.00;;;;4983130;28;20217;-84